Terminal Aerodrome Forecast
Issued by NWS Mt. Holly, NJ

Home | Current Version | Previous Version | Text Only | Print | Product List | Glossary On
Versions: 1 2 3 4 5 6 7 8 9 10 11 12 13 14 15 16 17 18 19 20 21 22 23 24
948
FTUS41 KPHI 182324
TAFPHL
TAF
KPHL 182324Z 1900/2006 18009KT P6SM -SHRA OVC070
      TEMPO 1901/1904 5SM SHRA OVC035
     FM190400 20015G25KT P6SM VCSH OVC035 WS020/21040KT
     FM190700 20018G28KT 5SM SHRA SCT008 OVC015
     FM191100 24020G32KT P6SM VCSH OVC025
     FM191300 27022G38KT P6SM BKN040
     FM191800 29020G32KT P6SM SCT040=

USA.gov is the U.S. government's official web portal to all federal, state and local government web resources and services.